Time;durP1;ratioP1;P1;durP2;ratioP2;P2;SDS_P1;SDS_P2;PMS_P1;PMS_P2;Temp;Humidity;BMP_temperature;BMP_pressure;BME280_temperature;BME280_humidity;BME280_pressure;Samples;Min_cycle;Max_cycle;Signal;HPM_P1;HPM_P2
2022/02/01 00:01:54;;;;;;;26.80;15.40;;;;;;;;;;4906155;29;20245;-73
2022/02/01 00:04:33;;;;;;;24.67;15.63;;;;;;;;;;4881476;29;20224;-73
2022/02/01 00:07:24;;;;;;;29.53;15.83;;;;;;;;;;4931027;29;20248;-73
2022/02/01 00:15:26;;;;;;;23.97;14.77;;;;;;;;;;4944734;28;20227;-73
2022/02/01 00:18:25;;;;;;;25.50;15.10;;;;;;;;;;4907045;29;20652;-72
2022/02/01 00:35:22;;;;;;;24.57;14.87;;;;;;;;;;4935241;28;20239;-73
2022/02/01 00:37:24;;;;;;;24.63;14.80;;;;;;;;;;4935896;28;20243;-72
2022/02/01 00:39:57;;;;;;;26.40;15.70;;;;;;;;;;4932924;29;20230;-72
2022/02/01 00:42:26;;;;;;;26.33;15.93;;;;;;;;;;4903015;29;20226;-72
2022/02/01 00:44:53;;;;;;;23.83;15.87;;;;;;;;;;4906521;29;20385;-71
2022/02/01 00:47:19;;;;;;;28.30;15.90;;;;;;;;;;4905152;28;20580;-72
2022/02/01 00:49:46;;;;;;;29.37;17.00;;;;;;;;;;4950851;28;20223;-72
2022/02/01 00:52:13;;;;;;;25.00;16.27;;;;;;;;;;4916659;29;20303;-72
2022/02/01 00:54:41;;;;;;;29.47;16.33;;;;;;;;;;4917591;29;20250;-71
2022/02/01 00:57:11;;;;;;;30.10;16.70;;;;;;;;;;4905596;28;20254;-72
2022/02/01 00:59:38;;;;;;;28.83;17.10;;;;;;;;;;4907171;29;20233;-72
2022/02/01 01:02:04;;;;;;;25.93;16.10;;;;;;;;;;4916052;28;20602;-72
2022/02/01 01:04:31;;;;;;;30.03;16.13;;;;;;;;;;4885146;29;20642;-73
2022/02/01 01:06:57;;;;;;;25.90;16.77;;;;;;;;;;4917927;29;20230;-72
2022/02/01 01:09:24;;;;;;;28.20;17.07;;;;;;;;;;4917282;28;20294;-72
2022/02/01 01:11:54;;;;;;;22.07;14.07;;;;;;;;;;4900355;29;20226;-73
2022/02/01 01:17:46;;;;;;;20.57;14.83;;;;;;;;;;4918263;29;20235;-73
2022/02/01 01:45:00;;;;;;;19.67;11.30;;;;;;;;;;4915929;29;20227;-73
2022/02/01 01:53:13;;;;;;;18.13;9.93;;;;;;;;;;4904526;28;20227;-72
2022/02/01 01:55:42;;;;;;;19.63;10.83;;;;;;;;;;4889293;29;20234;-72
2022/02/01 01:58:13;;;;;;;18.70;10.70;;;;;;;;;;4907101;28;20305;-74
2022/02/01 02:03:17;;;;;;;22.17;9.60;;;;;;;;;;4900296;29;20235;-73
2022/02/01 02:05:44;;;;;;;19.67;8.50;;;;;;;;;;4902587;29;20227;-74
2022/02/01 02:08:14;;;;;;;18.57;8.90;;;;;;;;;;4931082;29;20227;-74
2022/02/01 02:11:15;;;;;;;18.87;8.20;;;;;;;;;;4917193;29;20228;-73
2022/02/01 02:16:40;;;;;;;14.13;7.40;;;;;;;;;;4920348;28;20238;-73
2022/02/01 02:19:10;;;;;;;15.97;7.37;;;;;;;;;;4937672;28;20738;-71
2022/02/01 02:21:36;;;;;;;14.17;5.90;;;;;;;;;;4932717;29;20220;-71
2022/02/01 02:24:03;;;;;;;14.67;5.70;;;;;;;;;;4903193;28;20251;-73
2022/02/01 02:26:33;;;;;;;15.10;5.63;;;;;;;;;;4906998;29;20219;-71
2022/02/01 02:29:02;;;;;;;11.67;3.80;;;;;;;;;;4922760;29;20231;-72
2022/02/01 02:31:29;;;;;;;12.00;4.33;;;;;;;;;;4934142;29;20222;-72
2022/02/01 02:34:06;;;;;;;14.77;4.40;;;;;;;;;;4904772;29;20270;-73
2022/02/01 02:36:36;;;;;;;14.10;3.97;;;;;;;;;;4905875;29;20257;-73
2022/02/01 02:39:24;;;;;;;11.67;3.67;;;;;;;;;;4935081;29;20239;-73
2022/02/01 02:42:10;;;;;;;14.07;3.37;;;;;;;;;;4923857;29;20270;-72
2022/02/01 02:47:31;;;;;;;12.77;3.00;;;;;;;;;;4916888;29;20598;-73
2022/02/01 02:50:00;;;;;;;19.23;3.20;;;;;;;;;;4922343;29;20721;-73
2022/02/01 02:52:27;;;;;;;9.00;2.80;;;;;;;;;;4894334;29;20248;-73
2022/02/01 02:54:54;;;;;;;12.33;2.70;;;;;;;;;;4884794;29;20228;-73
2022/02/01 02:57:21;;;;;;;10.17;2.83;;;;;;;;;;4879203;28;20318;-74
2022/02/01 02:59:48;;;;;;;12.50;3.10;;;;;;;;;;4919380;29;20226;-73
2022/02/01 03:02:14;;;;;;;17.33;3.17;;;;;;;;;;4935683;28;20231;-73
2022/02/01 03:04:41;;;;;;;11.13;2.67;;;;;;;;;;4905581;29;20229;-73
2022/02/01 03:07:07;;;;;;;13.40;3.37;;;;;;;;;;4902507;28;20278;-74
2022/02/01 03:09:39;;;;;;;16.37;3.70;;;;;;;;;;4918267;29;20318;-73
2022/02/01 03:12:06;;;;;;;12.07;3.03;;;;;;;;;;4898304;28;20231;-74
2022/02/01 03:15:07;;;;;;;14.83;2.73;;;;;;;;;;4907121;29;20250;-73
2022/02/01 03:20:21;;;;;;;15.63;3.23;;;;;;;;;;4907231;28;20227;-73
2022/02/01 03:22:48;;;;;;;16.27;3.17;;;;;;;;;;4909441;29;20223;-73
2022/02/01 03:25:15;;;;;;;12.80;3.20;;;;;;;;;;4929287;28;20679;-73
2022/02/01 03:27:41;;;;;;;11.93;2.83;;;;;;;;;;4917836;29;20575;-73
2022/02/01 03:30:11;;;;;;;11.80;2.77;;;;;;;;;;4900835;29;20245;-72
2022/02/01 03:32:40;;;;;;;13.13;2.87;;;;;;;;;;4906013;29;20254;-73
2022/02/01 03:35:06;;;;;;;13.20;3.03;;;;;;;;;;4905650;28;20261;-74
2022/02/01 03:37:36;;;;;;;17.43;3.17;;;;;;;;;;4934691;29;20223;-73
2022/02/01 03:40:02;;;;;;;19.03;3.50;;;;;;;;;;4918436;29;20319;-73
2022/02/01 03:42:36;;;;;;;16.50;2.80;;;;;;;;;;4900169;29;20680;-73
2022/02/01 03:45:03;;;;;;;9.10;2.77;;;;;;;;;;4953082;29;20230;-73
2022/02/01 03:47:32;;;;;;;22.13;3.60;;;;;;;;;;4895937;29;20226;-73
2022/02/01 03:49:59;;;;;;;11.50;2.83;;;;;;;;;;4887361;29;20252;-73
2022/02/01 03:52:25;;;;;;;17.20;2.90;;;;;;;;;;4916748;28;20251;-73
2022/02/01 03:54:52;;;;;;;13.33;2.90;;;;;;;;;;4917716;29;20709;-72
2022/02/01 03:57:19;;;;;;;14.13;2.97;;;;;;;;;;4931110;28;20238;-73
2022/02/01 03:59:46;;;;;;;14.33;2.67;;;;;;;;;;4903166;29;20230;-73
2022/02/01 04:02:13;;;;;;;13.70;2.77;;;;;;;;;;4902584;28;20294;-73
2022/02/01 04:04:44;;;;;;;15.67;3.33;;;;;;;;;;4900142;29;20244;-73
2022/02/01 04:07:14;;;;;;;12.03;2.73;;;;;;;;;;4929203;29;20238;-73
2022/02/01 04:09:40;;;;;;;14.27;3.43;;;;;;;;;;4960275;28;20309;-74
2022/02/01 04:12:07;;;;;;;13.87;2.60;;;;;;;;;;4919798;28;20231;-74
2022/02/01 04:14:36;;;;;;;15.53;3.30;;;;;;;;;;4904677;29;20246;-74
2022/02/01 04:17:06;;;;;;;15.00;3.00;;;;;;;;;;4876612;29;20246;-73
2022/02/01 04:19:33;;;;;;;12.83;2.93;;;;;;;;;;4908768;29;20219;-73
2022/02/01 04:22:17;;;;;;;17.43;2.90;;;;;;;;;;4920290;29;20633;-73
2022/02/01 04:24:44;;;;;;;13.57;3.13;;;;;;;;;;4920626;29;20220;-71
2022/02/01 04:27:24;;;;;;;15.77;3.67;;;;;;;;;;4881865;29;20669;-73
2022/02/01 04:30:12;;;;;;;13.13;2.73;;;;;;;;;;4915496;29;20276;-73
2022/02/01 04:32:48;;;;;;;13.40;3.03;;;;;;;;;;4938928;28;20713;-73
2022/02/01 04:35:16;;;;;;;15.13;3.00;;;;;;;;;;4885530;29;20718;-72
2022/02/01 04:37:44;;;;;;;16.50;3.03;;;;;;;;;;4900192;29;20220;-73
2022/02/01 04:40:12;;;;;;;9.83;2.40;;;;;;;;;;4911928;28;20820;-73
2022/02/01 04:42:42;;;;;;;18.87;3.47;;;;;;;;;;4921385;29;20270;-73
2022/02/01 04:45:20;;;;;;;8.37;2.43;;;;;;;;;;4908029;28;20314;-73
2022/02/01 04:47:50;;;;;;;13.00;2.77;;;;;;;;;;4892832;29;20226;-73
2022/02/01 04:50:22;;;;;;;12.63;3.40;;;;;;;;;;4899016;29;20726;-72
2022/02/01 04:52:53;;;;;;;13.73;2.57;;;;;;;;;;4867009;29;20281;-73
2022/02/01 04:55:24;;;;;;;15.03;3.07;;;;;;;;;;4894992;28;20250;-72
2022/02/01 04:57:58;;;;;;;13.97;2.87;;;;;;;;;;4893794;29;20571;-72
2022/02/01 05:00:30;;;;;;;13.20;2.43;;;;;;;;;;4926274;28;20700;-72
2022/02/01 05:02:57;;;;;;;12.97;2.67;;;;;;;;;;4905493;29;20243;-73
2022/02/01 05:05:28;;;;;;;12.30;2.80;;;;;;;;;;4885031;29;20244;-72
2022/02/01 05:08:08;;;;;;;16.63;3.10;;;;;;;;;;4883838;29;20216;-72
2022/02/01 05:10:38;;;;;;;10.87;2.80;;;;;;;;;;4912780;28;20262;-73
2022/02/01 05:15:52;;;;;;;11.13;2.80;;;;;;;;;;4922844;29;20231;-72
2022/02/01 05:18:24;;;;;;;13.83;3.10;;;;;;;;;;4899409;29;20227;-73
2022/02/01 05:20:59;;;;;;;11.30;2.57;;;;;;;;;;4931973;29;20226;-73
2022/02/01 05:23:26;;;;;;;14.13;2.53;;;;;;;;;;4935218;28;20634;-73
2022/02/01 05:25:59;;;;;;;12.07;3.13;;;;;;;;;;4922460;29;20219;-72
2022/02/01 05:28:35;;;;;;;12.37;2.40;;;;;;;;;;4886463;28;20228;-73
2022/02/01 05:31:05;;;;;;;13.10;3.23;;;;;;;;;;4919756;29;20223;-75
2022/02/01 05:33:32;;;;;;;13.60;2.80;;;;;;;;;;4915778;29;20281;-74
2022/02/01 05:36:00;;;;;;;17.50;2.90;;;;;;;;;;4916807;29;20228;-73
2022/02/01 05:38:32;;;;;;;11.43;2.83;;;;;;;;;;4900493;28;20227;-73
2022/02/01 05:40:59;;;;;;;15.60;2.80;;;;;;;;;;4906835;29;20314;-73
2022/02/01 05:43:27;;;;;;;10.93;2.77;;;;;;;;;;4931248;28;20226;-73
2022/02/01 05:45:58;;;;;;;14.20;2.43;;;;;;;;;;4898690;29;20267;-72
2022/02/01 05:48:27;;;;;;;12.23;2.33;;;;;;;;;;4873678;29;20314;-72
2022/02/01 05:50:54;;;;;;;11.00;2.47;;;;;;;;;;4899066;28;20236;-72
2022/02/01 05:53:24;;;;;;;12.30;2.43;;;;;;;;;;4930643;28;20688;-72
2022/02/01 05:55:51;;;;;;;10.30;2.70;;;;;;;;;;4925689;29;20318;-72
2022/02/01 05:58:21;;;;;;;12.80;2.93;;;;;;;;;;4914951;28;20231;-73
2022/02/01 06:00:48;;;;;;;11.93;2.87;;;;;;;;;;4909108;29;20263;-73
2022/02/01 06:03:18;;;;;;;16.07;2.67;;;;;;;;;;4949819;28;20226;-73
2022/02/01 06:05:45;;;;;;;11.13;2.47;;;;;;;;;;4927217;29;20519;-73
2022/02/01 06:08:12;;;;;;;12.43;2.33;;;;;;;;;;4931095;28;20230;-72
2022/02/01 06:10:38;;;;;;;11.50;2.53;;;;;;;;;;4938444;28;20235;-74
2022/02/01 06:13:08;;;;;;;13.70;2.53;;;;;;;;;;4902293;28;20219;-72
2022/02/01 06:15:38;;;;;;;8.27;2.60;;;;;;;;;;4910622;29;20307;-73
2022/02/01 06:18:10;;;;;;;10.07;2.73;;;;;;;;;;4880857;29;20220;-72
2022/02/01 06:20:37;;;;;;;12.33;2.70;;;;;;;;;;4893103;29;20246;-72
2022/02/01 06:23:13;;;;;;;10.43;3.00;;;;;;;;;;4934237;29;20231;-72
2022/02/01 06:25:53;;;;;;;10.70;2.60;;;;;;;;;;4918899;29;20666;-73
2022/02/01 06:28:21;;;;;;;11.93;2.47;;;;;;;;;;4915415;28;20238;-73
2022/02/01 06:30:47;;;;;;;17.03;3.20;;;;;;;;;;4919133;29;20233;-72
2022/02/01 06:33:14;;;;;;;15.60;3.50;;;;;;;;;;4917962;28;20277;-72
2022/02/01 06:35:41;;;;;;;14.03;2.80;;;;;;;;;;4930078;29;20306;-73
2022/02/01 06:38:07;;;;;;;8.30;2.60;;;;;;;;;;4883610;28;20231;-73
2022/02/01 06:40:34;;;;;;;12.83;2.70;;;;;;;;;;4918891;29;20227;-74
2022/02/01 06:43:01;;;;;;;17.00;2.90;;;;;;;;;;4968761;28;20802;-72
2022/02/01 06:45:28;;;;;;;12.93;2.87;;;;;;;;;;4905632;29;20218;-73
2022/02/01 06:47:55;;;;;;;11.80;2.87;;;;;;;;;;4902469;29;20223;-73
2022/02/01 06:50:24;;;;;;;11.60;2.60;;;;;;;;;;4902370;29;20227;-73
2022/02/01 06:52:57;;;;;;;10.40;2.83;;;;;;;;;;4903848;29;20215;-72
2022/02/01 06:55:45;;;;;;;16.37;3.00;;;;;;;;;;4904172;29;20279;-74
2022/02/01 06:58:12;;;;;;;10.67;3.13;;;;;;;;;;4888789;29;20312;-72
2022/02/01 07:00:42;;;;;;;13.50;3.07;;;;;;;;;;4877928;29;20228;-74
2022/02/01 07:03:08;;;;;;;11.73;2.60;;;;;;;;;;4904977;28;20226;-74
2022/02/01 07:05:43;;;;;;;11.50;2.80;;;;;;;;;;4925105;29;20243;-73
2022/02/01 07:08:09;;;;;;;13.53;2.43;;;;;;;;;;4899634;29;20299;-73
2022/02/01 07:10:35;;;;;;;7.27;2.43;;;;;;;;;;4915865;29;20267;-73
2022/02/01 07:13:05;;;;;;;17.07;2.50;;;;;;;;;;4919846;29;20224;-73
2022/02/01 07:15:31;;;;;;;14.27;2.93;;;;;;;;;;4921211;29;20231;-73
2022/02/01 07:18:02;;;;;;;16.10;3.00;;;;;;;;;;4938052;29;20298;-74
2022/02/01 07:20:30;;;;;;;16.93;3.53;;;;;;;;;;4920905;29;20253;-74
2022/02/01 07:22:59;;;;;;;12.73;2.90;;;;;;;;;;4915735;29;20220;-72
2022/02/01 07:27:52;;;;;;;13.97;2.47;;;;;;;;;;4944730;28;20226;-73
2022/02/01 07:30:23;;;;;;;8.80;2.37;;;;;;;;;;4935129;28;20443;-73
2022/02/01 07:32:50;;;;;;;6.97;2.00;;;;;;;;;;4889447;29;20255;-74
2022/02/01 07:35:18;;;;;;;7.63;2.40;;;;;;;;;;4892074;29;20278;-73
2022/02/01 07:37:47;;;;;;;13.83;3.10;;;;;;;;;;4902573;29;20286;-73
2022/02/01 07:40:37;;;;;;;9.07;2.30;;;;;;;;;;4930258;28;20234;-74
2022/02/01 07:43:04;;;;;;;10.77;3.00;;;;;;;;;;4896221;29;20228;-73
2022/02/01 07:45:35;;;;;;;9.57;2.73;;;;;;;;;;4883954;29;20303;-74
2022/02/01 07:48:02;;;;;;;13.60;2.57;;;;;;;;;;4919040;29;20729;-73
2022/02/01 07:50:29;;;;;;;9.67;2.50;;;;;;;;;;4914136;29;20284;-74
2022/02/01 07:52:56;;;;;;;9.23;2.87;;;;;;;;;;4933704;29;20235;-72
2022/02/01 07:55:25;;;;;;;8.83;2.20;;;;;;;;;;4901469;29;20239;-72
2022/02/01 07:57:54;;;;;;;8.70;2.60;;;;;;;;;;4912535;29;20212;-73
2022/02/01 08:00:20;;;;;;;13.77;2.37;;;;;;;;;;4908654;29;20251;-72
2022/02/01 08:02:49;;;;;;;8.13;3.97;;;;;;;;;;4919007;29;20222;-74
2022/02/01 08:05:16;;;;;;;10.63;3.10;;;;;;;;;;4905160;28;20230;-73
2022/02/01 08:07:42;;;;;;;9.17;2.53;;;;;;;;;;4929584;29;20223;-74
2022/02/01 08:10:12;;;;;;;14.20;2.83;;;;;;;;;;4915861;28;20227;-73
2022/02/01 08:20:48;;;;;;;11.40;3.03;;;;;;;;;;4939229;29;20231;-75
2022/02/01 08:23:14;;;;;;;13.90;3.33;;;;;;;;;;4891347;29;20663;-73
2022/02/01 08:25:40;;;;;;;7.83;2.93;;;;;;;;;;4883282;29;20637;-73
2022/02/01 08:28:09;;;;;;;15.00;3.17;;;;;;;;;;4890394;29;20605;-73
2022/02/01 08:30:35;;;;;;;11.90;3.00;;;;;;;;;;4903042;29;20231;-72
2022/02/01 08:33:15;;;;;;;8.27;2.27;;;;;;;;;;4909275;28;20661;-72
2022/02/01 08:35:42;;;;;;;10.83;2.80;;;;;;;;;;4952211;29;20841;-73
2022/02/01 08:38:09;;;;;;;12.57;4.10;;;;;;;;;;4921975;28;20222;-73
2022/02/01 08:40:35;;;;;;;10.20;3.10;;;;;;;;;;4930486;29;20235;-73
2022/02/01 08:43:02;;;;;;;11.00;3.23;;;;;;;;;;4938354;29;20225;-73
2022/02/01 08:45:31;;;;;;;17.50;3.70;;;;;;;;;;4917374;29;20302;-73
2022/02/01 08:47:57;;;;;;;9.10;2.83;;;;;;;;;;4896549;29;20215;-73
2022/02/01 08:50:32;;;;;;;12.97;3.73;;;;;;;;;;4865948;29;20236;-73
2022/02/01 08:53:15;;;;;;;9.33;2.77;;;;;;;;;;4908330;28;20615;-72
2022/02/01 08:58:20;;;;;;;12.57;3.90;;;;;;;;;;4911266;29;20254;-72
2022/02/01 09:00:52;;;;;;;9.87;3.13;;;;;;;;;;4901400;29;20254;-73
2022/02/01 09:03:20;;;;;;;8.40;2.60;;;;;;;;;;4914117;28;20218;-73
2022/02/01 09:05:49;;;;;;;9.00;2.43;;;;;;;;;;4920788;29;20258;-72
2022/02/01 09:08:17;;;;;;;8.23;2.40;;;;;;;;;;4929001;29;20243;-73
2022/02/01 09:10:44;;;;;;;9.23;2.90;;;;;;;;;;4899582;29;20892;-74
2022/02/01 09:13:16;;;;;;;10.37;2.63;;;;;;;;;;4904560;28;20218;-74
2022/02/01 09:15:43;;;;;;;7.97;2.47;;;;;;;;;;4945584;28;20237;-74
2022/02/01 09:18:12;;;;;;;8.27;2.33;;;;;;;;;;4918990;29;20235;-73
2022/02/01 09:20:38;;;;;;;9.60;3.23;;;;;;;;;;4932831;29;20668;-73
2022/02/01 09:23:06;;;;;;;10.50;2.97;;;;;;;;;;4912223;29;20726;-74
2022/02/01 09:25:36;;;;;;;9.27;2.50;;;;;;;;;;4916429;29;20706;-74
2022/02/01 09:28:07;;;;;;;9.77;2.10;;;;;;;;;;4921430;29;20254;-73
2022/02/01 09:30:39;;;;;;;7.13;2.37;;;;;;;;;;4900902;29;20254;-74
2022/02/01 09:33:11;;;;;;;7.77;4.00;;;;;;;;;;4930462;29;20235;-73
2022/02/01 09:35:38;;;;;;;13.97;2.77;;;;;;;;;;4898454;29;20232;-73
2022/02/01 09:38:07;;;;;;;9.87;2.77;;;;;;;;;;4911998;29;20655;-73
2022/02/01 09:40:44;;;;;;;6.27;2.23;;;;;;;;;;4912189;29;20254;-73
2022/02/01 09:43:10;;;;;;;6.17;1.90;;;;;;;;;;4894928;29;20259;-73
2022/02/01 09:45:37;;;;;;;7.60;2.37;;;;;;;;;;4918282;29;20329;-73
2022/02/01 09:48:07;;;;;;;8.07;2.33;;;;;;;;;;4917595;29;20313;-73
2022/02/01 09:50:36;;;;;;;7.43;1.70;;;;;;;;;;4901804;29;20305;-73
2022/02/01 09:53:03;;;;;;;5.57;1.80;;;;;;;;;;4916367;28;20230;-73
2022/02/01 09:55:33;;;;;;;5.60;1.70;;;;;;;;;;4915146;29;20227;-73
2022/02/01 09:58:01;;;;;;;7.13;1.97;;;;;;;;;;4918684;29;20219;-73
2022/02/01 10:00:34;;;;;;;6.13;1.83;;;;;;;;;;4918220;29;20651;-74
2022/02/01 10:03:01;;;;;;;4.47;2.00;;;;;;;;;;4899548;29;20216;-73
2022/02/01 10:05:28;;;;;;;11.63;2.83;;;;;;;;;;4904704;29;20250;-73
2022/02/01 10:07:57;;;;;;;8.63;2.40;;;;;;;;;;4902753;29;20218;-74
2022/02/01 10:10:26;;;;;;;6.90;2.23;;;;;;;;;;4895407;29;20224;-74
2022/02/01 10:13:09;;;;;;;9.27;2.83;;;;;;;;;;4911965;29;20223;-74
2022/02/01 10:15:41;;;;;;;6.27;2.23;;;;;;;;;;4931771;28;20231;-74
2022/02/01 10:18:11;;;;;;;10.07;2.43;;;;;;;;;;4896210;29;20238;-73
2022/02/01 10:20:42;;;;;;;9.30;2.70;;;;;;;;;;4920690;29;20231;-73
2022/02/01 10:23:16;;;;;;;8.20;2.70;;;;;;;;;;4887183;28;20735;-73
2022/02/01 10:25:47;;;;;;;4.53;2.07;;;;;;;;;;4927821;29;20647;-74
2022/02/01 10:28:13;;;;;;;8.83;3.00;;;;;;;;;;4906524;28;20591;-73
2022/02/01 10:30:44;;;;;;;8.43;2.67;;;;;;;;;;4925292;29;20267;-72
2022/02/01 10:33:20;;;;;;;13.90;3.10;;;;;;;;;;4928004;28;20233;-73
2022/02/01 10:35:55;;;;;;;8.40;2.43;;;;;;;;;;4931723;28;20234;-72
2022/02/01 10:38:33;;;;;;;8.03;3.33;;;;;;;;;;4921746;28;20277;-71
2022/02/01 10:41:05;;;;;;;8.27;3.03;;;;;;;;;;4902076;29;20231;-72
2022/02/01 10:43:32;;;;;;;7.00;3.03;;;;;;;;;;4908327;29;20252;-72
2022/02/01 10:46:10;;;;;;;9.10;3.60;;;;;;;;;;4924162;28;20253;-73
2022/02/01 10:48:36;;;;;;;8.43;4.30;;;;;;;;;;4906941;28;20222;-73
2022/02/01 10:51:12;;;;;;;7.77;3.80;;;;;;;;;;4908647;28;20716;-72
2022/02/01 10:53:38;;;;;;;10.93;4.63;;;;;;;;;;4903105;29;20219;-73
2022/02/01 10:56:07;;;;;;;6.93;3.87;;;;;;;;;;4906568;29;20231;-72
2022/02/01 10:58:33;;;;;;;5.80;4.03;;;;;;;;;;4915006;28;20226;-72
2022/02/01 11:01:03;;;;;;;6.43;3.93;;;;;;;;;;4891803;29;20224;-74
2022/02/01 11:03:30;;;;;;;9.50;4.90;;;;;;;;;;4898462;29;20732;-73
2022/02/01 11:05:57;;;;;;;5.90;4.17;;;;;;;;;;4888418;29;20286;-73
2022/02/01 11:08:29;;;;;;;6.63;4.27;;;;;;;;;;4884377;29;20315;-73
2022/02/01 11:11:02;;;;;;;9.13;5.37;;;;;;;;;;4930848;28;20219;-73
2022/02/01 11:14:01;;;;;;;7.93;5.13;;;;;;;;;;4920465;29;20230;-72
2022/02/01 11:16:28;;;;;;;6.30;4.07;;;;;;;;;;4903599;29;20235;-74
2022/02/01 11:19:08;;;;;;;6.70;4.33;;;;;;;;;;4899206;29;20227;-75
2022/02/01 11:21:46;;;;;;;6.17;4.53;;;;;;;;;;4921818;29;20309;-72
2022/02/01 11:24:34;;;;;;;5.20;4.40;;;;;;;;;;4920744;28;20305;-73
2022/02/01 11:27:16;;;;;;;4.47;4.07;;;;;;;;;;4900738;29;20647;-72
2022/02/01 11:32:24;;;;;;;5.20;4.63;;;;;;;;;;4935141;28;20262;-73
2022/02/01 11:35:16;;;;;;;6.80;4.93;;;;;;;;;;4940529;28;20238;-73
2022/02/01 11:38:00;;;;;;;3.60;3.10;;;;;;;;;;4888589;29;20246;-73
2022/02/01 11:40:36;;;;;;;4.10;3.70;;;;;;;;;;4903451;29;20686;-73
2022/02/01 11:43:07;;;;;;;4.87;4.37;;;;;;;;;;4907093;29;20233;-73
2022/02/01 11:45:43;;;;;;;3.90;3.50;;;;;;;;;;4894403;29;20740;-73
2022/02/01 11:48:21;;;;;;;5.13;4.57;;;;;;;;;;4878534;28;20250;-73
2022/02/01 11:50:53;;;;;;;4.83;4.33;;;;;;;;;;4922151;29;20254;-74
2022/02/01 11:53:27;;;;;;;6.80;5.20;;;;;;;;;;4920588;28;20967;-73
2022/02/01 11:56:00;;;;;;;5.17;4.67;;;;;;;;;;4934484;29;20302;-74
2022/02/01 11:59:06;;;;;;;4.80;4.40;;;;;;;;;;4885088;29;20227;-73
2022/02/01 12:01:37;;;;;;;3.57;3.27;;;;;;;;;;4899141;29;20309;-73
2022/02/01 12:04:09;;;;;;;4.50;3.63;;;;;;;;;;4906974;28;20218;-73
2022/02/01 12:06:46;;;;;;;5.00;4.10;;;;;;;;;;4912377;29;20263;-73
2022/02/01 12:09:20;;;;;;;4.47;4.07;;;;;;;;;;4883679;29;20235;-72
2022/02/01 12:12:00;;;;;;;3.90;3.53;;;;;;;;;;4902143;29;20223;-73
2022/02/01 12:14:27;;;;;;;3.90;3.50;;;;;;;;;;4922161;28;20225;-74
2022/02/01 12:16:57;;;;;;;4.37;3.87;;;;;;;;;;4895144;29;20267;-73
2022/02/01 12:19:30;;;;;;;4.97;3.57;;;;;;;;;;4868199;29;20707;-72
2022/02/01 12:22:08;;;;;;;3.57;3.27;;;;;;;;;;4890710;29;20747;-72
2022/02/01 12:24:35;;;;;;;3.60;3.30;;;;;;;;;;4951879;29;20226;-73
2022/02/01 12:27:10;;;;;;;2.97;2.77;;;;;;;;;;4912313;29;20744;-72
2022/02/01 12:29:40;;;;;;;3.93;3.53;;;;;;;;;;4887469;29;20254;-73
2022/02/01 12:32:13;;;;;;;5.83;4.97;;;;;;;;;;4907286;28;20219;-72
2022/02/01 12:34:43;;;;;;;2.80;2.60;;;;;;;;;;4922151;29;20223;-74
2022/02/01 12:37:21;;;;;;;3.00;2.73;;;;;;;;;;4920651;28;20227;-72
2022/02/01 12:40:04;;;;;;;3.20;3.00;;;;;;;;;;4886488;29;20603;-74
2022/02/01 12:42:43;;;;;;;3.10;2.80;;;;;;;;;;4913025;29;20246;-72
2022/02/01 12:48:01;;;;;;;3.13;2.83;;;;;;;;;;4925429;29;20229;-72
2022/02/01 12:50:28;;;;;;;3.53;2.93;;;;;;;;;;4884905;29;20713;-72
2022/02/01 12:53:03;;;;;;;3.40;3.10;;;;;;;;;;4898253;29;20229;-73
2022/02/01 12:55:29;;;;;;;3.50;3.20;;;;;;;;;;4903456;29;20689;-73
2022/02/01 12:58:03;;;;;;;2.87;2.63;;;;;;;;;;4905336;29;20728;-73
2022/02/01 13:00:30;;;;;;;2.90;2.70;;;;;;;;;;4920165;28;20253;-73
2022/02/01 13:03:06;;;;;;;3.47;3.17;;;;;;;;;;4921678;29;20259;-73
2022/02/01 13:05:36;;;;;;;3.10;2.90;;;;;;;;;;4898466;29;20604;-73
2022/02/01 13:21:32;;;;;;;5.20;4.20;;;;;;;;;;4917845;29;20218;-73
2022/02/01 13:24:05;;;;;;;3.83;3.53;;;;;;;;;;4884820;29;20231;-72
2022/02/01 13:26:35;;;;;;;3.10;2.80;;;;;;;;;;4887353;29;20224;-74
2022/02/01 13:29:05;;;;;;;3.27;2.97;;;;;;;;;;4917040;29;20311;-73
2022/02/01 13:31:38;;;;;;;2.97;2.70;;;;;;;;;;4914715;29;20223;-74
2022/02/01 13:34:14;;;;;;;3.87;3.47;;;;;;;;;;4914985;29;20231;-73
2022/02/01 13:36:49;;;;;;;3.40;3.10;;;;;;;;;;4882562;29;20240;-73
2022/02/01 13:39:32;;;;;;;3.10;2.80;;;;;;;;;;4898563;29;20315;-74
2022/02/01 13:42:10;;;;;;;3.63;2.80;;;;;;;;;;4905709;29;20321;-73
2022/02/01 13:44:37;;;;;;;3.53;3.23;;;;;;;;;;4905466;29;20675;-73
2022/02/01 13:47:10;;;;;;;4.23;3.43;;;;;;;;;;4878985;29;20311;-74
2022/02/01 13:49:43;;;;;;;3.50;2.80;;;;;;;;;;4906794;29;20223;-74
2022/02/01 13:52:13;;;;;;;3.10;2.90;;;;;;;;;;4922303;29;20227;-75
2022/02/01 13:54:44;;;;;;;3.90;3.60;;;;;;;;;;4903316;29;20743;-72
2022/02/01 13:57:20;;;;;;;3.53;3.23;;;;;;;;;;4922618;29;20250;-73
2022/02/01 13:59:47;;;;;;;4.37;3.10;;;;;;;;;;4896651;29;20246;-74
2022/02/01 14:02:31;;;;;;;3.40;3.10;;;;;;;;;;4902398;29;20227;-72
2022/02/01 14:05:05;;;;;;;3.40;3.10;;;;;;;;;;4935598;28;20218;-72
2022/02/01 14:25:15;;;;;;;5.13;3.77;;;;;;;;;;4921738;28;20697;-73
2022/02/01 14:27:32;;;;;;;3.87;3.33;;;;;;;;;;4928425;29;20224;-75
2022/02/01 14:35:06;;;;;;;3.60;3.20;;;;;;;;;;4923772;29;20322;-76
2022/02/01 14:38:00;;;;;;;4.70;3.60;;;;;;;;;;4916400;29;20232;-76
2022/02/01 14:45:47;;;;;;;4.90;4.00;;;;;;;;;;4919816;29;20318;-75
2022/02/01 14:48:12;;;;;;;4.40;3.80;;;;;;;;;;4920197;29;20311;-75
2022/02/01 14:50:42;;;;;;;5.03;3.73;;;;;;;;;;4938210;29;20220;-74
2022/02/01 14:53:08;;;;;;;4.30;3.70;;;;;;;;;;4926461;29;20222;-74
2022/02/01 14:55:42;;;;;;;4.50;3.80;;;;;;;;;;4941498;29;20285;-74
2022/02/01 15:04:01;;;;;;;6.23;4.77;;;;;;;;;;4924408;28;20227;-74
2022/02/01 15:14:23;;;;;;;7.63;4.80;;;;;;;;;;4950173;28;20769;-77
2022/02/01 15:16:48;;;;;;;8.60;5.20;;;;;;;;;;4934592;29;20756;-73
2022/02/01 15:19:18;;;;;;;11.33;5.70;;;;;;;;;;4947785;28;20286;-73
2022/02/01 15:21:46;;;;;;;10.77;6.13;;;;;;;;;;4918602;29;20243;-73
2022/02/01 15:24:12;;;;;;;15.20;6.00;;;;;;;;;;4928833;29;20892;-74
2022/02/01 15:26:40;;;;;;;13.27;6.53;;;;;;;;;;4931665;29;20223;-73
2022/02/01 15:29:08;;;;;;;14.93;7.30;;;;;;;;;;4931893;29;20303;-71
2022/02/01 15:31:36;;;;;;;13.93;6.50;;;;;;;;;;4916963;29;20227;-73
2022/02/01 15:34:02;;;;;;;17.27;6.87;;;;;;;;;;4934274;29;20607;-73
2022/02/01 15:36:32;;;;;;;16.50;7.20;;;;;;;;;;4918979;29;20615;-71
2022/02/01 15:56:00;;;;;;;16.60;4.73;;;;;;;;;;4936752;29;20219;-73
2022/02/01 15:58:18;;;;;;;20.30;4.77;;;;;;;;;;4933798;29;20721;-71
2022/02/01 16:00:46;;;;;;;23.77;4.60;;;;;;;;;;4928268;29;20230;-71
2022/02/01 16:03:20;;;;;;;20.20;4.27;;;;;;;;;;4952546;28;20305;-70
2022/02/01 16:05:46;;;;;;;21.40;4.60;;;;;;;;;;4943269;29;20713;-71
2022/02/01 16:08:21;;;;;;;24.53;4.60;;;;;;;;;;4933185;28;20226;-73
2022/02/01 16:10:57;;;;;;;25.03;4.63;;;;;;;;;;4929140;29;20232;-72
2022/02/01 16:13:34;;;;;;;21.57;4.93;;;;;;;;;;4953722;28;20222;-72
2022/02/01 16:16:02;;;;;;;28.60;5.20;;;;;;;;;;4937099;28;20231;-71
2022/02/01 16:18:30;;;;;;;22.53;4.47;;;;;;;;;;4915566;29;20311;-73
2022/02/01 16:20:59;;;;;;;23.27;4.00;;;;;;;;;;4916658;29;20219;-71
2022/02/01 16:23:29;;;;;;;25.10;4.23;;;;;;;;;;4932926;29;20226;-73
2022/02/01 16:25:57;;;;;;;22.53;4.73;;;;;;;;;;4929639;29;20219;-72
2022/02/01 16:28:23;;;;;;;22.07;4.73;;;;;;;;;;4915847;29;20319;-73
2022/02/01 16:30:51;;;;;;;21.60;4.30;;;;;;;;;;4940005;29;20231;-74
2022/02/01 16:33:16;;;;;;;22.97;4.33;;;;;;;;;;4951898;28;20223;-72
2022/02/01 16:35:44;;;;;;;22.73;4.40;;;;;;;;;;4943346;29;20607;-71
2022/02/01 16:38:09;;;;;;;26.87;5.40;;;;;;;;;;4933399;29;20210;-73
2022/02/01 16:40:38;;;;;;;17.10;4.03;;;;;;;;;;4935989;29;20242;-73
2022/02/01 16:43:09;;;;;;;14.97;3.53;;;;;;;;;;4915098;29;20228;-71
2022/02/01 16:45:36;;;;;;;21.17;3.90;;;;;;;;;;4935938;29;20304;-72
2022/02/01 16:48:03;;;;;;;15.50;4.13;;;;;;;;;;4911230;29;20216;-72
2022/02/01 16:50:37;;;;;;;19.13;3.50;;;;;;;;;;4916379;29;20248;-73
2022/02/01 16:53:10;;;;;;;11.40;3.03;;;;;;;;;;4934194;29;20271;-75
2022/02/01 16:58:24;;;;;;;11.90;3.60;;;;;;;;;;4916461;29;20260;-71
2022/02/01 17:00:55;;;;;;;12.50;3.07;;;;;;;;;;4921564;29;20226;-74
2022/02/01 17:03:23;;;;;;;14.23;3.67;;;;;;;;;;4931999;29;20223;-73
2022/02/01 17:05:54;;;;;;;13.97;4.00;;;;;;;;;;4894661;29;20220;-72
2022/02/01 17:08:24;;;;;;;16.40;3.40;;;;;;;;;;4931720;28;20235;-73
2022/02/01 17:10:56;;;;;;;7.50;2.33;;;;;;;;;;4944899;28;20227;-72
2022/02/01 17:13:35;;;;;;;11.60;2.77;;;;;;;;;;4932007;29;20342;-73
2022/02/01 17:18:56;;;;;;;17.53;3.23;;;;;;;;;;4935218;29;20219;-71
2022/02/01 17:21:33;;;;;;;14.57;3.47;;;;;;;;;;4925556;29;20215;-72
2022/02/01 17:24:00;;;;;;;8.43;2.53;;;;;;;;;;4931075;29;20636;-74
2022/02/01 17:26:25;;;;;;;9.90;2.77;;;;;;;;;;4933722;29;20274;-74
2022/02/01 17:28:53;;;;;;;8.87;2.30;;;;;;;;;;4927334;29;20343;-73
2022/02/01 17:31:18;;;;;;;11.13;2.53;;;;;;;;;;4914778;28;20334;-73
2022/02/01 17:33:44;;;;;;;9.50;2.37;;;;;;;;;;4932014;29;20315;-73
2022/02/01 17:36:11;;;;;;;12.13;2.80;;;;;;;;;;4914367;29;20258;-73
2022/02/01 17:38:37;;;;;;;14.07;2.77;;;;;;;;;;4901198;29;20789;-72